Airfield :
LOGIN :

Register | Disclaimer

   EN    FR    IT 

 










Legend :    VFR   Marginal VFR   IFR   Intensive IFR   Very Intensive IFR
Visi :
Ceiling :
>= 8 km
>= 3000ft
5 to 8 km
1000 to 3000 ft
1500m to 5 km
500 to 1000 ft
800 to 1500m
200 to 500 ft
< 800m
< 200 ft
Symbols :   Thunderstorms  Fog  Heavy snow  Heavy precipitations  Wind > 20 kt
SIGMETs :     Misc.  Thunderstorms  Icing  Turbulence  Mountain Waves  Volcanic Ashes






- Airport Elevation : 209 ft
- IATA code : CLY


LFKC - Calvi

CURRENT METAR :
  • 091600Z AUTO 22014G30KT 180V260 9999 FEW036 BKN054 BKN064 14/06 Q1010 TEMPO FEW035TCU

EXPIRED METARs :
  • 091530Z AUTO 22014KT 190V250 9999 FEW036 SCT045 BKN054 14/07 Q1010 TEMPO FEW035TCU
  • 091500Z AUTO 22009G20KT 190V270 9999 SCT035 BKN044 BKN056 14/07 Q1011 TEMPO FEW035TCU
  • 091430Z AUTO 22017G29KT 190V250 9999 BKN037 BKN047 BKN054 14/07 Q1010 TEMPO FEW035TCU BECMG 26010KT
  • 091400Z AUTO 21016G27KT 9999 SCT035 BKN041 BKN048 14/07 Q1010 BECMG 25010KT
  • 091330Z AUTO 21016G26KT 180V240 9999 FEW034 SCT042 BKN052 14/07 Q1010 BECMG 25010KT

TAF TAF LFKC
Valid from the 09 at 15:00 until the 10 at 15:00 UTC


091400Z 0915/1015 20015G25KT 9999 SCT035 BKN045 TX15/0915Z TN07/1005Z
BECMG 0915/0916 26010KT
TEMPO 0916/0919 FEW035TCU
BECMG 0919/0921 18005KT
BECMG 1003/1005 01010KT
BECMG 1005/1007 01015G25KT
ATIS : +33 4 95 65 82 49



MET'MAP, your aeronautical weather chart ! - Copyright ORBIFLY December 2007 - Disclaimer

ORBIFLY MET'MAP TEAM :

Programming & Development : Alexandra Zaïnal
Concept & original design : Baudouin d'Aumeries
Assistance for programming : Marc-Olivier Méhu
Technical & hardware support : Manuel Goepfert

Contact : metmap@orbifly.com




SOURCES & CREDITS :

   NOAA